Time;durP1;ratioP1;P1;durP2;ratioP2;P2;SDS_P1;SDS_P2;PMS_P1;PMS_P2;Temp;Humidity;BMP_temperature;BMP_pressure;BME280_temperature;BME280_humidity;BME280_pressure;Samples;Min_cycle;Max_cycle;Signal;HPM_P1;HPM_P2
2022/09/11 00:02:24;0.00;0.00;0.62;0.00;0.00;0.62;4.20;3.80;;;25.00;39.40;;;;;;2260793;61;20598;-63
2022/09/11 00:05:09;0.00;0.00;0.62;0.00;0.00;0.62;4.73;4.30;;;25.00;39.40;;;;;;2261160;61;20358;-64
2022/09/11 00:07:55;0.00;0.00;0.62;0.00;0.00;0.62;5.10;4.20;;;24.90;39.40;;;;;;2261251;61;20434;-62
2022/09/11 00:10:42;0.00;0.00;0.62;0.00;0.00;0.62;5.00;3.63;;;24.90;39.50;;;;;;2260979;61;20630;-63
2022/09/11 00:13:27;0.00;0.00;0.62;0.00;0.00;0.62;3.83;3.43;;;24.80;39.40;;;;;;2261141;61;20389;-63
2022/09/11 00:16:20;0.00;0.00;0.62;0.00;0.00;0.62;4.37;3.97;;;24.80;39.70;;;;;;2261258;61;20397;-63
2022/09/11 00:19:09;0.00;0.00;0.62;0.00;0.00;0.62;4.93;3.47;;;24.80;39.70;;;;;;2261207;61;20557;-63
2022/09/11 00:21:56;0.00;0.00;0.62;0.00;0.00;0.62;3.40;2.80;;;24.70;39.60;;;;;;2261257;61;20393;-62
2022/09/11 00:24:41;0.00;0.00;0.62;0.00;0.00;0.62;3.27;2.97;;;24.70;39.60;;;;;;2260725;61;20357;-63
2022/09/11 00:27:26;0.00;0.00;0.62;0.00;0.00;0.62;3.40;3.00;;;24.80;39.70;;;;;;2261242;61;20394;-64
2022/09/11 00:30:13;0.00;0.00;0.62;0.00;0.00;0.62;2.87;2.37;;;24.80;39.70;;;;;;2261139;61;20647;-64
2022/09/11 00:32:59;0.00;0.00;0.62;0.00;0.00;0.62;2.93;2.23;;;24.80;39.70;;;;;;2261294;61;20749;-63
2022/09/11 00:35:53;0.00;0.00;0.62;0.00;0.00;0.62;3.00;2.37;;;24.90;39.80;;;;;;2261119;61;20393;-64
2022/09/11 00:38:38;0.00;0.00;0.62;0.00;0.00;0.62;3.07;2.53;;;24.90;39.80;;;;;;2260592;61;20362;-62
2022/09/11 00:41:25;0.00;0.00;0.62;0.00;0.00;0.62;3.30;3.00;;;24.90;39.80;;;;;;2261422;61;20426;-63
2022/09/11 00:44:59;0.00;0.00;0.62;0.00;0.00;0.62;3.00;2.73;;;24.90;39.70;;;;;;2261199;61;20397;-63
2022/09/11 00:47:45;0.00;0.00;0.62;0.00;0.00;0.62;3.03;2.20;;;25.00;39.70;;;;;;2260585;61;20722;-63
2022/09/11 00:50:31;0.00;0.00;0.62;0.00;0.00;0.62;3.43;3.00;;;25.00;39.60;;;;;;2260978;61;20400;-63
2022/09/11 00:53:22;0.00;0.00;0.62;0.00;0.00;0.62;4.23;3.83;;;25.00;39.50;;;;;;2258206;61;20385;-63
2022/09/11 00:56:09;0.00;0.00;0.62;0.00;0.00;0.62;4.00;3.60;;;25.00;39.50;;;;;;2261374;61;20615;-63
2022/09/11 00:58:55;0.00;0.00;0.62;0.00;0.00;0.62;4.00;3.60;;;25.10;39.50;;;;;;2260877;61;20365;-63
2022/09/11 01:01:40;0.00;0.00;0.62;0.00;0.00;0.62;5.00;4.50;;;25.00;39.40;;;;;;2260768;61;20416;-63
2022/09/11 01:04:28;0.00;0.00;0.62;0.00;0.00;0.62;6.90;4.80;;;25.10;39.40;;;;;;2260601;61;20742;-64
2022/09/11 01:07:15;0.00;0.00;0.62;0.00;0.00;0.62;4.90;4.40;;;25.00;39.30;;;;;;2261364;61;20366;-64
2022/09/11 01:09:59;0.00;0.00;0.62;0.00;0.00;0.62;5.67;5.17;;;25.00;39.30;;;;;;2261043;61;20444;-63
2022/09/11 01:12:59;0.00;0.00;0.62;0.00;0.00;0.62;6.50;5.90;;;25.00;39.20;;;;;;2260983;61;20439;-63
2022/09/11 01:15:53;0.00;0.00;0.62;0.00;0.00;0.62;6.10;5.20;;;25.00;39.20;;;;;;2260609;61;20381;-63
2022/09/11 01:18:45;0.00;0.00;0.62;0.00;0.00;0.62;5.17;4.67;;;25.00;39.20;;;;;;2261503;61;20405;-64
2022/09/11 01:22:09;0.00;0.00;0.62;0.00;0.00;0.62;5.67;5.17;;;24.90;39.90;;;;;;2261865;61;20362;-64
2022/09/11 01:25:04;0.00;0.00;0.62;0.00;0.00;0.62;6.67;6.07;;;24.80;39.30;;;;;;2261588;61;20397;-62
2022/09/11 01:27:52;0.00;0.00;0.62;0.00;0.00;0.62;8.10;5.90;;;24.70;39.30;;;;;;2261285;61;20366;-63
2022/09/11 01:30:42;0.00;0.00;0.62;0.00;0.00;0.62;7.33;6.63;;;24.70;39.50;;;;;;2261005;61;20369;-64
2022/09/11 01:33:33;0.00;0.00;0.62;0.00;0.00;0.62;7.73;7.00;;;24.70;39.60;;;;;;2262282;61;20410;-62
2022/09/11 01:36:21;0.00;0.00;0.62;0.00;0.00;0.62;7.53;6.83;;;24.60;39.50;;;;;;2261786;61;20389;-64
2022/09/11 01:39:06;0.00;0.00;0.62;0.00;0.00;0.62;8.97;7.23;;;24.50;39.40;;;;;;2261473;61;20358;-61
2022/09/11 01:42:00;0.00;0.00;0.62;0.00;0.00;0.62;7.50;6.77;;;24.50;39.50;;;;;;2261693;61;20374;-63
2022/09/11 01:44:50;0.00;0.00;0.62;0.00;0.00;0.62;7.30;6.60;;;24.50;39.70;;;;;;2261355;61;20581;-62
2022/09/11 01:47:37;0.00;0.00;0.62;0.00;0.00;0.62;7.50;6.80;;;24.40;39.80;;;;;;2261150;61;20706;-62
2022/09/11 01:50:23;0.00;0.00;0.62;0.00;0.00;0.62;9.37;8.57;;;24.30;39.80;;;;;;2261623;61;20397;-63
2022/09/11 01:53:11;0.00;0.00;0.62;0.00;0.00;0.62;7.60;6.90;;;24.30;40.00;;;;;;2261536;61;20729;-63
2022/09/11 01:56:01;0.00;0.00;0.62;0.00;0.00;0.62;5.60;5.00;;;24.30;40.00;;;;;;2261184;61;20401;-63
2022/09/11 01:58:52;0.00;0.00;0.62;0.00;0.00;0.62;8.27;7.43;;;24.30;40.00;;;;;;2261137;61;20440;-63
2022/09/11 02:01:43;0.00;0.00;0.62;0.00;0.00;0.62;7.60;6.80;;;24.30;40.10;;;;;;2261055;61;20417;-63
2022/09/11 02:04:34;0.00;0.00;0.62;0.00;0.00;0.62;5.70;5.13;;;24.30;40.10;;;;;;2261526;61;20374;-63
2022/09/11 02:07:25;0.00;0.00;0.62;0.00;0.00;0.62;5.40;4.90;;;24.30;40.10;;;;;;2261444;61;20374;-63
2022/09/11 02:10:17;0.00;0.00;0.62;0.00;0.00;0.62;7.90;7.10;;;24.40;40.10;;;;;;2261174;61;20718;-64
2022/09/11 02:13:10;0.00;0.00;0.62;0.00;0.00;0.62;7.30;5.77;;;24.30;40.10;;;;;;2261360;61;20425;-63
2022/09/11 02:16:02;0.00;0.00;0.62;0.00;0.00;0.62;8.27;7.47;;;24.40;40.10;;;;;;2260939;61;20753;-64
2022/09/11 02:18:59;0.00;0.00;0.62;0.00;0.00;0.62;10.73;9.67;;;24.40;40.20;;;;;;2260982;61;20405;-63
2022/09/11 02:21:46;0.00;0.00;0.62;0.00;0.00;0.62;12.77;11.50;;;24.50;40.30;;;;;;2261286;61;20401;-63
2022/09/11 02:24:31;0.00;0.00;0.62;0.00;0.00;0.62;10.87;8.53;;;24.50;40.30;;;;;;2261177;61;20362;-63
2022/09/11 02:27:21;0.00;0.00;0.62;0.00;0.00;0.62;10.87;8.77;;;24.40;40.20;;;;;;2260992;61;20361;-63
2022/09/11 02:30:10;0.00;0.00;0.62;0.00;0.00;0.62;10.00;9.00;;;24.40;40.20;;;;;;2260884;61;20394;-63
2022/09/11 02:32:56;0.00;0.00;0.62;0.00;0.00;0.62;10.17;8.13;;;24.40;40.30;;;;;;2261130;61;20417;-63
2022/09/11 02:35:48;0.00;0.00;0.62;0.00;0.00;0.62;8.57;7.77;;;24.40;40.30;;;;;;2261402;61;20409;-64
2022/09/11 02:38:46;0.00;0.00;0.62;0.00;0.00;0.62;9.50;8.50;;;24.40;40.30;;;;;;2260965;61;20357;-63
2022/09/11 02:41:41;0.00;0.00;0.62;0.00;0.00;0.62;7.67;6.90;;;24.40;40.30;;;;;;2261500;61;20742;-63
2022/09/11 02:44:36;0.00;0.00;0.62;0.00;0.00;0.62;6.77;6.07;;;24.40;40.30;;;;;;2261101;61;20612;-62
2022/09/11 02:47:40;0.00;0.00;0.62;0.00;0.00;0.62;6.90;6.20;;;24.40;40.30;;;;;;2261336;61;20362;-63
2022/09/11 02:50:32;0.00;0.00;0.62;0.00;0.00;0.62;7.73;6.40;;;24.50;40.30;;;;;;2261517;61;20761;-63
2022/09/11 02:53:28;0.00;0.00;0.62;0.00;0.00;0.62;9.10;8.20;;;24.50;40.30;;;;;;2260933;61;20373;-63
2022/09/11 02:56:20;0.00;0.00;0.62;0.00;0.00;0.62;9.30;8.20;;;24.50;40.30;;;;;;2261041;61;20414;-63
2022/09/11 02:59:10;0.00;0.00;0.62;0.00;0.00;0.62;8.03;7.23;;;24.50;40.30;;;;;;2261052;61;20362;-63
2022/09/11 03:01:59;0.00;0.00;0.62;0.00;0.00;0.62;8.60;7.40;;;24.50;41.00;;;;;;2261181;61;20385;-63
2022/09/11 03:04:44;0.00;0.00;0.62;0.00;0.00;0.62;10.27;9.30;;;24.50;40.30;;;;;;2512404;53;20375;-62
2022/09/11 03:07:29;0.00;0.00;0.62;0.00;0.00;0.62;7.80;6.90;;;24.50;40.40;;;;;;2262158;61;20738;-61
2022/09/11 03:10:17;0.00;0.00;0.62;0.00;0.00;0.62;6.20;5.60;;;24.50;40.40;;;;;;2264558;61;20405;-64
2022/09/11 03:13:02;0.00;0.00;0.62;0.00;0.00;0.62;8.53;7.53;;;24.50;40.30;;;;;;2260940;61;20389;-63
2022/09/11 03:15:49;0.00;0.00;0.62;0.00;0.00;0.62;9.97;9.07;;;24.50;40.30;;;;;;2260767;61;20432;-62
2022/09/11 03:18:34;0.00;0.00;0.62;0.00;0.00;0.62;8.97;8.07;;;24.50;40.30;;;;;;2260762;61;20362;-62
2022/09/11 03:21:19;0.00;0.00;0.62;0.00;0.00;0.62;10.20;9.20;;;24.50;40.30;;;;;;2266560;61;20394;-63
2022/09/11 03:24:05;0.00;0.00;0.62;0.00;0.00;0.62;7.40;6.70;;;24.50;40.30;;;;;;2261591;61;20362;-64
2022/09/11 03:26:53;0.00;0.00;0.62;0.00;0.00;0.62;8.23;7.43;;;24.50;40.30;;;;;;2260923;61;20767;-64
2022/09/11 03:29:38;0.00;0.00;0.62;0.00;0.00;0.62;9.03;8.13;;;24.50;40.90;;;;;;2260870;61;20366;-63
2022/09/11 03:32:22;0.00;0.00;0.62;0.00;0.00;0.62;10.10;9.10;;;24.50;40.30;;;;;;2261004;61;20804;-63
2022/09/11 03:35:08;0.00;0.00;0.62;0.00;0.00;0.62;10.23;9.10;;;24.50;40.40;;;;;;2261049;61;20410;-63
2022/09/11 03:37:56;0.00;0.00;0.62;0.00;0.00;0.62;10.00;9.00;;;24.50;40.40;;;;;;2260683;61;20365;-63
2022/09/11 03:40:43;0.00;0.00;0.62;0.00;0.00;0.62;12.00;7.70;;;24.50;40.40;;;;;;2261160;61;20682;-63
2022/09/11 03:43:29;0.00;0.00;0.62;0.00;0.00;0.62;11.07;7.23;;;24.50;40.40;;;;;;2261466;61;20581;-63
2022/09/11 03:46:16;0.00;0.00;0.62;0.00;0.00;0.62;6.60;5.97;;;24.50;40.40;;;;;;2261061;61;20362;-64
2022/09/11 03:49:01;0.00;0.00;0.62;0.00;0.00;0.62;6.33;5.63;;;24.50;40.40;;;;;;2260387;61;20624;-62
2022/09/11 03:51:47;0.00;0.00;0.62;0.00;0.00;0.62;5.80;5.20;;;24.50;40.40;;;;;;2260585;61;20766;-63
2022/09/11 03:54:33;0.00;0.00;0.62;0.00;0.00;0.62;5.63;5.13;;;24.50;40.30;;;;;;2260890;61;20381;-62
2022/09/11 03:57:18;0.00;0.00;0.62;0.00;0.00;0.62;6.20;5.60;;;24.50;40.20;;;;;;2266970;61;20432;-63
2022/09/11 04:00:07;0.00;0.00;0.62;0.00;0.00;0.62;6.43;5.83;;;24.60;40.30;;;;;;2261199;61;20362;-63
2022/09/11 04:03:04;0.00;0.00;0.62;0.00;0.00;0.62;7.17;6.37;;;24.60;40.30;;;;;;2261164;61;20397;-63
2022/09/11 04:05:59;0.00;0.00;0.62;0.00;0.00;0.62;6.83;6.13;;;24.60;40.30;;;;;;2261255;61;20398;-63
2022/09/11 04:08:44;0.00;0.00;0.62;0.00;0.00;0.62;7.73;6.57;;;24.60;40.30;;;;;;2260968;61;20405;-63
2022/09/11 04:11:30;0.00;0.00;0.62;0.00;0.00;0.62;5.63;4.93;;;24.60;40.20;;;;;;2301913;58;20368;-63
2022/09/11 04:14:18;0.00;0.00;0.62;0.00;0.00;0.62;5.43;4.83;;;24.60;40.20;;;;;;2260824;61;20365;-64
2022/09/11 04:17:06;0.00;0.00;0.62;0.00;0.00;0.62;4.87;4.20;;;24.60;40.20;;;;;;2260850;61;20362;-61
2022/09/11 04:19:51;0.00;0.00;0.62;0.00;0.00;0.62;5.87;5.27;;;24.70;40.10;;;;;;2261270;61;20366;-63
2022/09/11 04:22:38;0.00;0.00;0.62;0.00;0.00;0.62;6.60;5.90;;;24.70;40.10;;;;;;2260824;61;20623;-63
2022/09/11 04:25:23;0.00;0.00;0.62;0.00;0.00;0.62;6.10;5.50;;;24.70;40.00;;;;;;2260918;61;20389;-63
2022/09/11 04:28:08;0.00;0.00;0.62;0.00;0.00;0.62;6.00;5.40;;;24.70;40.00;;;;;;2261030;61;20420;-62
2022/09/11 04:30:53;0.00;0.00;0.62;0.00;0.00;0.62;5.20;4.70;;;24.70;40.00;;;;;;2261372;61;20420;-63
2022/09/11 04:33:39;0.00;0.00;0.62;0.00;0.00;0.62;6.33;5.40;;;24.70;39.90;;;;;;2261468;61;20634;-63
2022/09/11 04:36:25;0.00;0.00;0.62;0.00;0.00;0.62;5.30;4.60;;;24.70;39.80;;;;;;2258035;61;20388;-63
2022/09/11 04:39:11;0.00;0.00;0.62;0.00;0.00;0.62;7.93;6.50;;;24.80;39.80;;;;;;2260689;61;20374;-62
2022/09/11 04:41:56;0.00;0.00;0.62;0.00;0.00;0.62;6.93;6.30;;;24.80;39.70;;;;;;2261723;61;20433;-63
2022/09/11 04:44:41;0.00;0.00;0.62;0.00;0.00;0.62;7.43;6.10;;;24.80;39.70;;;;;;2261172;61;20393;-62
2022/09/11 04:47:27;0.00;0.00;0.62;0.00;0.00;0.62;8.00;7.00;;;24.80;39.70;;;;;;2261212;61;20749;-63
2022/09/11 04:50:15;0.00;0.00;0.62;0.00;0.00;0.62;7.23;6.53;;;24.80;39.70;;;;;;2261407;61;20361;-63
2022/09/11 04:53:00;0.00;0.00;0.62;0.00;0.00;0.62;8.20;6.70;;;24.80;39.70;;;;;;2261955;61;20381;-62
2022/09/11 04:55:45;0.00;0.00;0.62;0.00;0.00;0.62;7.17;6.30;;;24.80;39.70;;;;;;2261594;61;20478;-63
2022/09/11 04:58:31;0.00;0.00;0.62;0.00;0.00;0.62;7.50;6.70;;;24.80;39.70;;;;;;2261464;61;20365;-62
2022/09/11 05:01:16;0.00;0.00;0.62;0.00;0.00;0.62;8.40;6.97;;;24.90;39.80;;;;;;2261985;61;20365;-65
2022/09/11 05:04:05;0.00;0.00;0.62;0.00;0.00;0.62;7.60;6.87;;;24.80;39.70;;;;;;2261915;61;20416;-63
2022/09/11 05:06:52;0.00;0.00;0.62;0.00;0.00;0.62;10.90;7.47;;;24.90;39.80;;;;;;2261414;61;20730;-63
2022/09/11 05:09:37;0.00;0.00;0.62;0.00;0.00;0.62;8.47;7.23;;;24.90;39.80;;;;;;2261322;61;20722;-63
2022/09/11 05:12:23;0.00;0.00;0.62;0.00;0.00;0.62;9.00;7.57;;;24.90;39.80;;;;;;2261854;61;20608;-62
2022/09/11 05:15:09;0.00;0.00;0.62;0.00;0.00;0.62;9.50;8.37;;;24.90;39.80;;;;;;2262029;61;20389;-64
2022/09/11 05:17:54;0.00;0.00;0.62;0.00;0.00;0.62;12.80;10.40;;;24.90;39.80;;;;;;2261513;61;20380;-63
2022/09/11 05:20:40;0.00;0.00;0.62;0.00;0.00;0.62;9.83;8.80;;;24.90;39.80;;;;;;2261240;61;20370;-63
2022/09/11 05:23:27;0.00;0.00;0.62;0.00;0.00;0.62;10.20;8.50;;;24.90;39.80;;;;;;2261454;61;20643;-65
2022/09/11 05:26:15;0.00;0.00;0.62;0.00;0.00;0.62;11.53;10.33;;;24.90;39.80;;;;;;2261994;61;20424;-65
2022/09/11 05:29:02;0.00;0.00;0.62;0.00;0.00;0.62;12.43;10.40;;;24.90;39.80;;;;;;2261188;61;20365;-63
2022/09/11 05:31:48;0.00;0.00;0.62;0.00;0.00;0.62;12.43;9.63;;;24.90;40.40;;;;;;2258767;61;20381;-64
2022/09/11 05:34:36;0.00;0.00;0.62;0.00;0.00;0.62;16.10;13.47;;;24.90;39.80;;;;;;2261687;61;20382;-64
2022/09/11 05:37:25;0.00;0.00;0.62;0.00;0.00;0.62;16.23;11.73;;;24.80;39.70;;;;;;2261665;61;20370;-64
2022/09/11 05:40:12;0.00;0.00;0.62;0.00;0.00;0.62;17.40;12.60;;;24.80;39.70;;;;;;2261302;61;20396;-65
2022/09/11 05:42:58;0.00;0.00;0.62;0.00;0.00;0.62;15.70;13.10;;;24.80;39.70;;;;;;2261270;61;20390;-64
2022/09/11 05:45:44;0.00;0.00;0.62;0.00;0.00;0.62;14.83;12.40;;;24.80;39.70;;;;;;2261477;61;20358;-67
2022/09/11 05:48:30;0.00;0.00;0.62;0.00;0.00;0.62;13.67;10.73;;;24.70;39.60;;;;;;2261707;61;20362;-67
2022/09/11 05:51:20;0.00;0.00;0.62;0.00;0.00;0.62;13.53;11.17;;;24.70;39.60;;;;;;2261344;61;20389;-66
2022/09/11 05:54:06;0.00;0.00;0.62;0.00;0.00;0.62;12.50;10.63;;;24.70;39.60;;;;;;2261291;61;20460;-63
2022/09/11 05:56:53;0.00;0.00;0.62;0.00;0.00;0.62;11.97;9.50;;;24.70;39.60;;;;;;2261870;61;20362;-66
2022/09/11 05:59:41;0.00;0.00;0.62;0.00;0.00;0.62;11.93;10.40;;;24.70;39.60;;;;;;2261456;61;20366;-65
2022/09/11 06:02:27;0.00;0.00;0.62;0.00;0.00;0.62;12.87;10.40;;;24.70;39.60;;;;;;2262013;61;20766;-67
2022/09/11 06:05:13;0.00;0.00;0.62;0.00;0.00;0.62;13.97;11.17;;;24.70;39.60;;;;;;2258716;61;20385;-64
2022/09/11 06:08:00;0.00;0.00;0.62;0.00;0.00;0.62;14.50;10.90;;;24.70;39.60;;;;;;2258700;61;20358;-60
2022/09/11 06:10:45;0.00;0.00;0.62;0.00;0.00;0.62;14.37;11.13;;;24.80;39.70;;;;;;2261609;61;20405;-65
2022/09/11 06:13:35;0.00;0.00;0.62;0.00;0.00;0.62;12.23;9.50;;;24.70;39.60;;;;;;2261134;61;20393;-66
2022/09/11 06:16:23;0.00;0.00;0.62;0.00;0.00;0.62;12.73;11.20;;;24.70;39.60;;;;;;2261254;61;20502;-65
2022/09/11 06:19:09;0.00;0.00;0.62;0.00;0.00;0.62;13.43;11.10;;;24.80;39.70;;;;;;2261322;61;20393;-66
2022/09/11 06:21:55;0.00;0.00;0.62;0.00;0.00;0.62;12.40;11.10;;;24.80;39.70;;;;;;2261898;61;20463;-66
2022/09/11 06:24:51;0.00;0.00;0.62;0.00;0.00;0.62;12.47;11.10;;;24.80;39.70;;;;;;2261531;61;20382;-64
2022/09/11 06:27:35;0.00;0.00;0.62;0.00;0.00;0.62;12.07;10.40;;;24.80;40.40;;;;;;2261229;61;20413;-63
2022/09/11 06:30:22;0.00;0.00;0.62;0.00;0.00;0.62;11.27;10.10;;;24.80;39.70;;;;;;2261137;61;20362;-62
2022/09/11 06:33:07;0.00;0.00;0.62;0.00;0.00;0.62;11.20;10.00;;;24.80;39.60;;;;;;2261653;61;20378;-63
2022/09/11 06:35:57;0.00;0.00;0.62;0.00;0.00;0.62;11.87;10.30;;;24.80;39.50;;;;;;2259790;61;20460;-68
2022/09/11 06:38:43;0.00;0.00;0.62;0.00;0.00;0.62;10.57;9.47;;;24.80;39.50;;;;;;2260246;61;20377;-65
2022/09/11 06:41:31;0.00;0.00;0.62;0.00;0.00;0.62;10.33;9.20;;;24.90;40.20;;;;;;2261376;61;20578;-67
2022/09/11 06:44:26;0.00;0.00;0.62;0.00;0.00;0.62;11.87;10.07;;;24.80;39.50;;;;;;2261545;61;20366;-67
2022/09/11 06:47:13;0.00;0.00;0.62;0.00;0.00;0.62;11.10;9.37;;;24.90;39.50;;;;;;2261651;61;20362;-64
2022/09/11 06:49:57;0.00;0.00;0.62;0.00;0.00;0.62;11.27;9.97;;;24.90;39.50;;;;;;2261404;61;20369;-68
2022/09/11 06:52:50;0.00;0.00;0.62;0.00;0.00;0.62;12.37;10.17;;;24.80;39.40;;;;;;2260537;61;20390;-66
2022/09/11 06:55:40;0.00;0.00;0.62;0.00;0.00;0.62;10.57;8.63;;;24.90;39.50;;;;;;2261319;61;20436;-66
2022/09/11 06:58:31;0.00;0.00;0.62;0.00;0.00;0.62;10.20;9.10;;;24.90;39.50;;;;;;2288424;58;20577;-65
2022/09/11 07:01:18;0.00;0.00;0.62;0.00;0.00;0.62;9.13;7.93;;;24.90;39.50;;;;;;2261541;61;20365;-66
2022/09/11 07:04:09;0.00;0.00;0.62;0.00;0.00;0.62;9.13;7.93;;;24.90;40.10;;;;;;2261084;61;20620;-66
2022/09/11 07:06:54;0.00;0.00;0.62;0.00;0.00;0.62;10.47;9.20;;;24.90;39.50;;;;;;2266706;61;20361;-69
2022/09/11 07:09:41;0.00;0.00;0.62;0.00;0.00;0.62;9.90;8.90;;;24.90;39.40;;;;;;2285336;58;20397;-67
2022/09/11 07:12:27;0.00;0.00;0.62;0.00;0.00;0.62;12.33;10.10;;;24.90;39.40;;;;;;2341047;53;20449;-67
2022/09/11 07:15:13;0.00;0.00;0.62;0.00;0.00;0.62;10.57;8.53;;;25.00;39.50;;;;;;2260802;61;20388;-70
2022/09/11 07:18:00;0.00;0.00;0.62;0.00;0.00;0.62;9.37;7.57;;;24.90;39.40;;;;;;2261633;61;20361;-68
2022/09/11 07:20:47;0.00;0.00;0.62;0.00;0.00;0.62;9.00;8.10;;;25.00;39.50;;;;;;2264527;61;20360;-66
2022/09/11 07:23:34;0.00;0.00;0.62;0.00;0.00;0.62;13.30;10.73;;;25.00;39.50;;;;;;2265232;61;20689;-67
2022/09/11 07:26:21;0.00;0.00;0.62;0.00;0.00;0.62;11.53;10.33;;;25.00;39.40;;;;;;2265383;61;20353;-66
2022/09/11 07:29:11;0.00;0.00;0.62;0.00;0.00;0.62;12.50;10.13;;;25.00;39.50;;;;;;2263616;61;20734;-69
2022/09/11 07:31:57;0.00;0.00;0.62;0.00;0.00;0.62;10.80;9.50;;;25.00;39.50;;;;;;2261483;61;20638;-67
2022/09/11 07:34:42;0.00;0.00;0.62;0.00;0.00;0.62;11.43;10.33;;;25.00;39.40;;;;;;2260850;61;20358;-68
2022/09/11 07:37:30;0.00;0.00;0.62;0.00;0.00;0.62;11.03;9.50;;;25.00;39.40;;;;;;2261082;61;20396;-66
2022/09/11 07:40:15;0.00;0.00;0.62;0.00;0.00;0.62;9.77;8.80;;;25.00;39.50;;;;;;2261115;61;20432;-62
2022/09/11 07:43:00;0.00;0.00;0.62;0.00;0.00;0.62;14.10;11.17;;;25.00;39.40;;;;;;2261099;61;20420;-62
2022/09/11 07:45:47;0.00;0.00;0.62;0.00;0.00;0.62;10.90;9.80;;;25.00;39.50;;;;;;2261094;61;20370;-64
2022/09/11 07:48:32;0.00;0.00;0.62;0.00;0.00;0.62;12.23;11.00;;;25.00;39.50;;;;;;2260927;61;20565;-61
2022/09/11 07:51:18;0.00;0.00;0.62;0.00;0.00;0.62;11.57;10.10;;;25.00;39.50;;;;;;2260790;61;20370;-62
2022/09/11 07:54:07;0.00;0.00;0.62;0.00;0.00;0.62;12.83;11.47;;;25.00;39.50;;;;;;2261459;61;20354;-64
2022/09/11 07:56:54;0.00;0.00;0.62;0.00;0.00;0.62;11.03;9.50;;;25.00;39.50;;;;;;2260742;61;20382;-62
2022/09/11 07:59:40;0.00;0.00;0.62;0.00;0.00;0.62;12.20;10.90;;;25.00;39.50;;;;;;2260664;61;20377;-62
2022/09/11 08:02:25;0.00;0.00;0.62;0.00;0.00;0.62;10.00;9.00;;;25.00;39.50;;;;;;2261412;61;20761;-61
2022/09/11 08:05:11;0.00;0.00;0.62;0.00;0.00;0.62;12.07;10.77;;;25.00;39.50;;;;;;2261014;61;20353;-62
2022/09/11 08:07:56;0.00;0.00;0.62;0.00;0.00;0.62;10.23;8.93;;;25.00;39.50;;;;;;2261107;61;20469;-61
2022/09/11 08:10:42;0.00;0.00;0.62;0.00;0.00;0.62;10.77;9.10;;;25.00;39.50;;;;;;2260379;61;20408;-62
2022/09/11 08:13:28;0.00;0.00;0.62;0.00;0.00;0.62;13.47;10.13;;;25.00;40.10;;;;;;2260891;61;20605;-63
2022/09/11 08:16:13;0.00;0.00;0.62;0.00;0.00;0.62;10.90;8.77;;;25.00;39.40;;;;;;2261349;61;20382;-63
2022/09/11 08:18:58;0.00;0.00;0.62;0.00;0.00;0.62;10.13;9.10;;;25.00;39.40;;;;;;2260527;61;20594;-63
2022/09/11 08:21:43;0.00;0.00;0.62;0.00;0.00;0.62;10.77;9.33;;;25.00;39.40;;;;;;2264880;61;20605;-63
2022/09/11 08:24:29;0.00;0.00;0.62;0.00;0.00;0.62;11.70;9.90;;;25.10;40.10;;;;;;2265379;61;20593;-62
2022/09/11 08:27:18;0.00;0.00;0.62;0.00;0.00;0.62;14.57;12.23;;;25.10;39.40;;;;;;2264979;61;20420;-60
2022/09/11 08:30:05;0.00;0.00;0.62;0.00;0.00;0.62;10.53;9.37;;;25.10;39.40;;;;;;2261943;61;20453;-64
2022/09/11 08:32:51;0.00;0.00;0.62;0.00;0.00;0.62;11.13;10.00;;;25.10;39.40;;;;;;2260693;61;20401;-64
2022/09/11 08:35:36;0.00;0.00;0.62;0.00;0.00;0.62;11.03;9.87;;;25.10;39.30;;;;;;2261339;61;20390;-60
2022/09/11 08:38:21;0.00;0.00;0.62;0.00;0.00;0.62;11.53;9.53;;;25.10;39.30;;;;;;2261771;61;20619;-62
2022/09/11 08:41:11;0.00;0.00;0.62;0.00;0.00;0.62;11.60;9.03;;;25.10;39.30;;;;;;2275494;61;20369;-64
2022/09/11 08:44:02;0.00;0.00;0.62;0.00;0.00;0.62;12.70;10.23;;;25.10;39.30;;;;;;2261752;61;20358;-63
2022/09/11 08:46:53;0.00;0.00;0.62;0.00;0.00;0.62;11.40;10.13;;;25.10;39.30;;;;;;2261460;61;20473;-62
2022/09/11 08:49:45;0.00;0.00;0.62;0.00;0.00;0.62;10.00;9.00;;;25.10;39.80;;;;;;2262272;61;20440;-63
2022/09/11 08:52:34;0.00;0.00;0.62;0.00;0.00;0.62;10.03;8.90;;;25.10;39.20;;;;;;2265179;61;20769;-62
2022/09/11 08:55:31;0.00;0.00;0.62;0.00;0.00;0.62;10.33;8.60;;;25.10;39.20;;;;;;2265048;61;20567;-63
2022/09/11 08:58:27;0.00;0.00;0.62;0.00;0.00;0.62;11.73;9.20;;;25.10;39.20;;;;;;2265117;61;20392;-61
2022/09/11 09:01:24;0.00;0.00;0.62;0.00;0.00;0.62;12.77;10.10;;;25.10;39.20;;;;;;2272453;61;20408;-62
2022/09/11 09:04:32;0.00;0.00;0.62;0.00;0.00;0.62;9.47;8.47;;;25.10;39.90;;;;;;2261574;61;20377;-62
2022/09/11 09:07:31;0.00;0.00;0.62;0.00;0.00;0.62;8.40;7.60;;;25.10;39.80;;;;;;2260787;61;20358;-63
2022/09/11 09:10:34;0.00;0.00;0.62;0.00;0.00;0.62;9.57;8.47;;;25.10;39.20;;;;;;2260557;61;20373;-60
2022/09/11 09:13:47;0.00;0.00;0.62;0.00;0.00;0.62;9.33;8.17;;;25.10;39.20;;;;;;2260964;61;20389;-62
2022/09/11 09:16:45;0.00;0.00;0.62;0.00;0.00;0.62;8.17;7.00;;;25.10;39.10;;;;;;2261656;61;20408;-63
2022/09/11 09:19:38;0.00;0.00;0.62;0.00;0.00;0.62;9.37;8.10;;;25.10;39.10;;;;;;2260606;61;20373;-64
2022/09/11 09:22:34;0.00;0.00;0.62;0.00;0.00;0.62;9.00;8.10;;;25.10;39.00;;;;;;2261269;61;20643;-63
2022/09/11 09:25:22;0.00;0.00;0.62;0.00;0.00;0.62;8.53;7.27;;;25.10;39.00;;;;;;2261217;61;20714;-61
2022/09/11 09:28:18;0.00;0.00;0.62;0.00;0.00;0.62;6.67;6.00;;;25.10;39.00;;;;;;2261090;61;20358;-64
2022/09/11 09:31:06;0.00;0.00;0.62;0.00;0.00;0.62;7.47;6.40;;;25.10;38.90;;;;;;2284502;61;20798;-64
2022/09/11 09:34:00;0.00;0.00;0.62;0.00;0.00;0.62;7.23;6.10;;;25.10;38.90;;;;;;2264955;61;20380;-62
2022/09/11 09:36:52;0.00;0.00;0.62;0.00;0.00;0.62;7.53;6.80;;;25.20;39.00;;;;;;2264796;61;20629;-61
2022/09/11 09:39:37;0.00;0.00;0.62;0.00;0.00;0.62;9.73;7.60;;;25.20;38.90;;;;;;2263141;61;20382;-61
2022/09/11 09:43:09;0.00;0.00;0.62;0.00;0.00;0.62;8.90;8.00;;;25.10;38.80;;;;;;2261289;61;20417;-64
2022/09/11 09:46:10;0.00;0.00;0.62;0.00;0.00;0.62;7.07;6.37;;;25.20;38.90;;;;;;2262366;61;20354;-62
2022/09/11 09:48:56;0.00;0.00;0.62;0.00;0.00;0.62;8.00;7.17;;;25.20;38.80;;;;;;2261582;61;20401;-63
2022/09/11 09:51:41;0.00;0.00;0.62;0.00;0.00;0.62;7.43;6.60;;;25.20;38.90;;;;;;2257745;61;20386;-62
2022/09/11 09:54:29;0.00;0.00;0.62;0.00;0.00;0.62;8.03;6.30;;;25.20;38.90;;;;;;2257623;61;20355;-64
2022/09/11 09:57:15;0.00;0.00;0.62;0.00;0.00;0.62;8.90;6.50;;;25.20;38.90;;;;;;2257594;61;20383;-61
2022/09/11 10:00:06;0.00;0.00;0.62;0.00;0.00;0.62;8.30;7.50;;;25.20;39.50;;;;;;2265576;61;20730;-64
2022/09/11 10:02:57;0.00;0.00;0.62;0.00;0.00;0.62;7.60;6.63;;;25.20;38.80;;;;;;2261417;61;20433;-63
2022/09/11 10:05:44;0.00;0.00;0.62;0.00;0.00;0.62;8.50;7.20;;;25.20;38.80;;;;;;2261667;61;20366;-64
2022/09/11 10:08:34;0.00;0.00;0.62;0.00;0.00;0.62;7.70;6.90;;;25.20;38.80;;;;;;2261918;61;20575;-62
2022/09/11 10:11:27;0.00;0.00;0.62;0.00;0.00;0.62;8.20;6.50;;;25.20;38.80;;;;;;2261651;61;20403;-64
2022/09/11 10:14:20;0.00;0.00;0.62;0.00;0.00;0.62;8.70;7.80;;;25.20;38.80;;;;;;2262184;61;20714;-63
2022/09/11 10:17:05;0.00;0.00;0.62;0.00;0.00;0.62;10.03;8.83;;;25.20;38.80;;;;;;2261450;61;20432;-61
2022/09/11 10:19:55;0.00;0.00;0.62;0.00;0.00;0.62;9.50;7.87;;;25.20;39.40;;;;;;2261335;61;20415;-63
2022/09/11 10:22:42;0.00;0.00;0.62;0.00;0.00;0.62;11.00;9.27;;;25.20;38.70;;;;;;2503007;53;20445;-61
2022/09/11 10:25:28;0.00;0.00;0.62;0.00;0.00;0.62;8.80;7.90;;;25.20;38.80;;;;;;2265575;61;20361;-63
2022/09/11 10:28:18;0.00;0.00;0.62;0.00;0.00;0.62;9.07;8.17;;;25.20;38.70;;;;;;2265643;61;20859;-63
2022/09/11 10:31:04;0.00;0.00;0.62;0.00;0.00;0.62;9.43;8.43;;;25.20;38.80;;;;;;2265749;61;20364;-62
2022/09/11 10:33:55;0.00;0.00;0.62;0.00;0.00;0.62;9.13;8.17;;;25.20;38.80;;;;;;2266072;61;20844;-62
2022/09/11 10:36:51;0.00;0.00;0.62;0.00;0.00;0.62;9.27;8.37;;;25.10;38.70;;;;;;2266154;61;20416;-62
2022/09/11 10:39:39;0.00;0.00;0.62;0.00;0.00;0.62;9.50;8.50;;;25.10;38.80;;;;;;2263285;61;20722;-63
2022/09/11 10:42:26;0.00;0.00;0.62;0.00;0.00;0.62;11.13;7.20;;;25.10;38.80;;;;;;2261598;61;20743;-62
2022/09/11 10:45:15;0.00;0.00;0.62;0.00;0.00;0.62;9.33;8.43;;;25.10;38.80;;;;;;2261908;61;20427;-64
2022/09/11 10:48:14;0.00;0.00;0.62;0.00;0.00;0.62;7.57;6.80;;;25.10;38.90;;;;;;2261701;61;20366;-65
2022/09/11 10:51:11;0.00;0.00;0.62;0.00;0.00;0.62;8.13;7.13;;;25.10;38.90;;;;;;2284896;61;20370;-62
2022/09/11 10:54:13;0.00;0.00;0.62;0.00;0.00;0.62;7.57;6.80;;;25.10;38.90;;;;;;2261397;61;20841;-62
2022/09/11 10:57:12;0.00;0.00;0.62;0.00;0.00;0.62;7.20;6.40;;;25.10;39.00;;;;;;2261603;61;20456;-63
2022/09/11 11:00:10;0.00;0.00;0.62;0.00;0.00;0.62;6.63;5.30;;;25.10;39.00;;;;;;2261689;61;20370;-63
2022/09/11 11:02:59;0.00;0.00;0.62;0.00;0.00;0.62;8.73;6.90;;;25.10;39.00;;;;;;2261634;61;20429;-63
2022/09/11 11:05:58;0.00;0.00;0.62;0.00;0.00;0.62;9.10;6.57;;;25.10;39.10;;;;;;2261662;61;20397;-63